sensor_id;sensor_type;location;lat;lon;timestamp;P1;durP1;ratioP1;P2;durP2;ratioP2
37641;SDS011;23486;51.956;5.888;2023-09-19T00:00:44;3.45;;;0.40;;
37641;SDS011;23486;51.956;5.888;2023-09-19T00:03:12;1.73;;;0.40;;
37641;SDS011;23486;51.956;5.888;2023-09-19T00:05:38;5.72;;;0.40;;
37641;SDS011;23486;51.956;5.888;2023-09-19T00:08:04;4.75;;;0.68;;
37641;SDS011;23486;51.956;5.888;2023-09-19T00:10:31;3.15;;;0.45;;
37641;SDS011;23486;51.956;5.888;2023-09-19T00:13:00;7.68;;;0.80;;
37641;SDS011;23486;51.956;5.888;2023-09-19T00:15:36;6.22;;;0.80;;
37641;SDS011;23486;51.956;5.888;2023-09-19T00:18:04;9.02;;;0.65;;
37641;SDS011;23486;51.956;5.888;2023-09-19T00:20:37;8.13;;;0.90;;
37641;SDS011;23486;51.956;5.888;2023-09-19T00:23:03;7.65;;;0.70;;
37641;SDS011;23486;51.956;5.888;2023-09-19T00:25:37;7.28;;;0.70;;
37641;SDS011;23486;51.956;5.888;2023-09-19T00:28:03;7.22;;;0.95;;
37641;SDS011;23486;51.956;5.888;2023-09-19T00:30:32;6.82;;;0.93;;
37641;SDS011;23486;51.956;5.888;2023-09-19T00:33:03;9.75;;;1.52;;
37641;SDS011;23486;51.956;5.888;2023-09-19T00:35:31;8.65;;;0.85;;
37641;SDS011;23486;51.956;5.888;2023-09-19T00:37:56;7.32;;;0.90;;
37641;SDS011;23486;51.956;5.888;2023-09-19T00:40:22;13.57;;;0.90;;
37641;SDS011;23486;51.956;5.888;2023-09-19T00:42:48;6.38;;;0.73;;
37641;SDS011;23486;51.956;5.888;2023-09-19T00:45:16;5.35;;;0.82;;
37641;SDS011;23486;51.956;5.888;2023-09-19T00:47:43;7.20;;;0.73;;
37641;SDS011;23486;51.956;5.888;2023-09-19T00:50:11;5.35;;;0.85;;
37641;SDS011;23486;51.956;5.888;2023-09-19T00:52:39;4.30;;;0.95;;
37641;SDS011;23486;51.956;5.888;2023-09-19T00:55:07;5.93;;;0.60;;
37641;SDS011;23486;51.956;5.888;2023-09-19T00:57:34;4.82;;;0.60;;
37641;SDS011;23486;51.956;5.888;2023-09-19T01:00:05;6.72;;;0.75;;
37641;SDS011;23486;51.956;5.888;2023-09-19T01:02:33;4.35;;;0.63;;
37641;SDS011;23486;51.956;5.888;2023-09-19T01:05:00;5.00;;;0.73;;
37641;SDS011;23486;51.956;5.888;2023-09-19T01:07:26;6.95;;;1.02;;
37641;SDS011;23486;51.956;5.888;2023-09-19T01:09:55;9.68;;;1.15;;
37641;SDS011;23486;51.956;5.888;2023-09-19T01:12:26;5.03;;;0.85;;
37641;SDS011;23486;51.956;5.888;2023-09-19T01:15:17;5.80;;;1.10;;
37641;SDS011;23486;51.956;5.888;2023-09-19T01:31:54;14.05;;;1.40;;
37641;SDS011;23486;51.956;5.888;2023-09-19T01:34:22;3.85;;;0.73;;
37641;SDS011;23486;51.956;5.888;2023-09-19T01:36:48;10.85;;;1.45;;
37641;SDS011;23486;51.956;5.888;2023-09-19T01:39:13;7.03;;;1.05;;
37641;SDS011;23486;51.956;5.888;2023-09-19T01:42:01;7.60;;;1.00;;
37641;SDS011;23486;51.956;5.888;2023-09-19T01:47:14;6.75;;;1.33;;
37641;SDS011;23486;51.956;5.888;2023-09-19T01:49:59;10.52;;;1.25;;
37641;SDS011;23486;51.956;5.888;2023-09-19T01:55:47;13.77;;;1.33;;
37641;SDS011;23486;51.956;5.888;2023-09-19T02:00:47;10.73;;;1.42;;
37641;SDS011;23486;51.956;5.888;2023-09-19T02:03:16;9.65;;;1.00;;
37641;SDS011;23486;51.956;5.888;2023-09-19T02:05:48;7.43;;;1.00;;
37641;SDS011;23486;51.956;5.888;2023-09-19T02:08:16;8.32;;;1.10;;
37641;SDS011;23486;51.956;5.888;2023-09-19T02:10:44;10.40;;;1.00;;
37641;SDS011;23486;51.956;5.888;2023-09-19T02:13:14;17.83;;;1.35;;
37641;SDS011;23486;51.956;5.888;2023-09-19T02:15:53;5.50;;;0.80;;
37641;SDS011;23486;51.956;5.888;2023-09-19T02:18:19;8.68;;;1.08;;
37641;SDS011;23486;51.956;5.888;2023-09-19T02:20:45;10.60;;;0.95;;
37641;SDS011;23486;51.956;5.888;2023-09-19T02:23:11;9.10;;;0.68;;
37641;SDS011;23486;51.956;5.888;2023-09-19T02:25:38;7.32;;;0.82;;
37641;SDS011;23486;51.956;5.888;2023-09-19T02:28:05;7.90;;;0.75;;
37641;SDS011;23486;51.956;5.888;2023-09-19T02:30:31;7.20;;;0.80;;
37641;SDS011;23486;51.956;5.888;2023-09-19T02:32:58;9.35;;;0.88;;
37641;SDS011;23486;51.956;5.888;2023-09-19T02:35:26;8.85;;;0.70;;
37641;SDS011;23486;51.956;5.888;2023-09-19T02:37:53;10.32;;;1.30;;
37641;SDS011;23486;51.956;5.888;2023-09-19T02:40:18;7.30;;;1.38;;
37641;SDS011;23486;51.956;5.888;2023-09-19T02:42:47;7.72;;;1.23;;
37641;SDS011;23486;51.956;5.888;2023-09-19T02:45:17;13.38;;;1.08;;
37641;SDS011;23486;51.956;5.888;2023-09-19T02:47:44;8.63;;;0.85;;
37641;SDS011;23486;51.956;5.888;2023-09-19T02:50:10;16.05;;;1.25;;
37641;SDS011;23486;51.956;5.888;2023-09-19T02:52:36;5.25;;;0.80;;
37641;SDS011;23486;51.956;5.888;2023-09-19T02:55:02;9.52;;;0.80;;
37641;SDS011;23486;51.956;5.888;2023-09-19T02:57:30;6.25;;;1.27;;
37641;SDS011;23486;51.956;5.888;2023-09-19T02:59:58;8.88;;;0.80;;
37641;SDS011;23486;51.956;5.888;2023-09-19T03:02:25;8.85;;;1.20;;
37641;SDS011;23486;51.956;5.888;2023-09-19T03:04:52;10.95;;;1.00;;
37641;SDS011;23486;51.956;5.888;2023-09-19T03:07:18;8.90;;;0.80;;
37641;SDS011;23486;51.956;5.888;2023-09-19T03:09:44;7.30;;;1.00;;
37641;SDS011;23486;51.956;5.888;2023-09-19T03:12:10;5.53;;;0.70;;
37641;SDS011;23486;51.956;5.888;2023-09-19T03:14:36;8.32;;;0.77;;
37641;SDS011;23486;51.956;5.888;2023-09-19T03:17:01;8.95;;;1.02;;
37641;SDS011;23486;51.956;5.888;2023-09-19T03:19:30;9.23;;;0.93;;
37641;SDS011;23486;51.956;5.888;2023-09-19T03:21:58;7.88;;;0.98;;
37641;SDS011;23486;51.956;5.888;2023-09-19T03:24:24;5.63;;;0.70;;
37641;SDS011;23486;51.956;5.888;2023-09-19T03:26:50;8.70;;;0.85;;
37641;SDS011;23486;51.956;5.888;2023-09-19T03:29:16;10.05;;;0.90;;
37641;SDS011;23486;51.956;5.888;2023-09-19T03:31:42;8.13;;;0.52;;
37641;SDS011;23486;51.956;5.888;2023-09-19T03:34:08;8.48;;;0.95;;
37641;SDS011;23486;51.956;5.888;2023-09-19T03:36:34;6.63;;;0.77;;
37641;SDS011;23486;51.956;5.888;2023-09-19T03:39:00;7.35;;;0.73;;
37641;SDS011;23486;51.956;5.888;2023-09-19T03:41:26;5.90;;;0.70;;
37641;SDS011;23486;51.956;5.888;2023-09-19T03:43:51;6.45;;;0.90;;
37641;SDS011;23486;51.956;5.888;2023-09-19T03:46:17;4.13;;;0.68;;
37641;SDS011;23486;51.956;5.888;2023-09-19T03:48:43;8.38;;;0.60;;
37641;SDS011;23486;51.956;5.888;2023-09-19T03:51:09;9.82;;;0.90;;
37641;SDS011;23486;51.956;5.888;2023-09-19T03:53:35;7.32;;;0.80;;
37641;SDS011;23486;51.956;5.888;2023-09-19T03:56:01;10.05;;;1.40;;
37641;SDS011;23486;51.956;5.888;2023-09-19T03:58:27;6.40;;;0.70;;
37641;SDS011;23486;51.956;5.888;2023-09-19T04:00:56;12.45;;;1.35;;
37641;SDS011;23486;51.956;5.888;2023-09-19T04:03:23;8.95;;;0.90;;
37641;SDS011;23486;51.956;5.888;2023-09-19T04:05:49;5.82;;;0.80;;
37641;SDS011;23486;51.956;5.888;2023-09-19T04:08:15;8.20;;;0.73;;
37641;SDS011;23486;51.956;5.888;2023-09-19T04:10:41;6.57;;;0.70;;
37641;SDS011;23486;51.956;5.888;2023-09-19T04:13:08;5.03;;;0.90;;
37641;SDS011;23486;51.956;5.888;2023-09-19T04:15:34;5.93;;;0.50;;
37641;SDS011;23486;51.956;5.888;2023-09-19T04:17:59;6.45;;;0.80;;
37641;SDS011;23486;51.956;5.888;2023-09-19T04:20:25;7.20;;;0.85;;
37641;SDS011;23486;51.956;5.888;2023-09-19T04:22:51;10.60;;;0.80;;
37641;SDS011;23486;51.956;5.888;2023-09-19T04:25:17;7.75;;;1.05;;
37641;SDS011;23486;51.956;5.888;2023-09-19T04:27:45;7.70;;;0.80;;
37641;SDS011;23486;51.956;5.888;2023-09-19T04:30:14;10.52;;;1.50;;
37641;SDS011;23486;51.956;5.888;2023-09-19T04:32:40;7.10;;;0.93;;
37641;SDS011;23486;51.956;5.888;2023-09-19T04:35:06;8.02;;;1.08;;
37641;SDS011;23486;51.956;5.888;2023-09-19T04:37:37;6.15;;;0.60;;
37641;SDS011;23486;51.956;5.888;2023-09-19T04:40:05;7.18;;;0.93;;
37641;SDS011;23486;51.956;5.888;2023-09-19T04:42:31;8.25;;;0.68;;
37641;SDS011;23486;51.956;5.888;2023-09-19T04:44:57;8.75;;;0.77;;
37641;SDS011;23486;51.956;5.888;2023-09-19T04:47:24;10.05;;;0.95;;
37641;SDS011;23486;51.956;5.888;2023-09-19T04:49:51;6.72;;;0.70;;
37641;SDS011;23486;51.956;5.888;2023-09-19T04:52:16;7.00;;;0.70;;
37641;SDS011;23486;51.956;5.888;2023-09-19T04:54:42;7.03;;;0.80;;
37641;SDS011;23486;51.956;5.888;2023-09-19T04:57:07;4.05;;;0.60;;
37641;SDS011;23486;51.956;5.888;2023-09-19T04:59:33;8.45;;;1.23;;
37641;SDS011;23486;51.956;5.888;2023-09-19T05:01:59;7.97;;;0.80;;
37641;SDS011;23486;51.956;5.888;2023-09-19T05:04:27;8.48;;;0.68;;
37641;SDS011;23486;51.956;5.888;2023-09-19T05:06:53;10.80;;;1.02;;
37641;SDS011;23486;51.956;5.888;2023-09-19T05:09:19;6.38;;;0.75;;
37641;SDS011;23486;51.956;5.888;2023-09-19T05:11:44;7.53;;;0.60;;
37641;SDS011;23486;51.956;5.888;2023-09-19T05:14:10;6.00;;;0.50;;
37641;SDS011;23486;51.956;5.888;2023-09-19T05:16:36;8.18;;;0.73;;
37641;SDS011;23486;51.956;5.888;2023-09-19T05:19:02;8.73;;;0.82;;
37641;SDS011;23486;51.956;5.888;2023-09-19T05:21:27;5.25;;;0.63;;
37641;SDS011;23486;51.956;5.888;2023-09-19T05:23:54;7.93;;;1.00;;
37641;SDS011;23486;51.956;5.888;2023-09-19T05:26:21;7.70;;;1.00;;
37641;SDS011;23486;51.956;5.888;2023-09-19T05:28:46;5.25;;;0.60;;
37641;SDS011;23486;51.956;5.888;2023-09-19T05:31:15;5.88;;;0.60;;
37641;SDS011;23486;51.956;5.888;2023-09-19T05:33:41;6.53;;;0.60;;
37641;SDS011;23486;51.956;5.888;2023-09-19T05:36:07;7.85;;;1.05;;
37641;SDS011;23486;51.956;5.888;2023-09-19T05:38:35;9.20;;;0.73;;
37641;SDS011;23486;51.956;5.888;2023-09-19T05:41:02;9.68;;;1.00;;
37641;SDS011;23486;51.956;5.888;2023-09-19T05:43:27;5.78;;;0.68;;
37641;SDS011;23486;51.956;5.888;2023-09-19T05:45:53;8.93;;;1.15;;
37641;SDS011;23486;51.956;5.888;2023-09-19T05:48:21;7.22;;;0.57;;
37641;SDS011;23486;51.956;5.888;2023-09-19T05:50:47;8.10;;;0.70;;
37641;SDS011;23486;51.956;5.888;2023-09-19T05:53:13;10.63;;;0.70;;
37641;SDS011;23486;51.956;5.888;2023-09-19T05:55:40;7.57;;;0.70;;
37641;SDS011;23486;51.956;5.888;2023-09-19T05:58:06;8.20;;;0.82;;
37641;SDS011;23486;51.956;5.888;2023-09-19T06:00:35;7.32;;;0.90;;
37641;SDS011;23486;51.956;5.888;2023-09-19T06:03:01;9.52;;;0.93;;
37641;SDS011;23486;51.956;5.888;2023-09-19T06:05:27;8.15;;;0.88;;
37641;SDS011;23486;51.956;5.888;2023-09-19T06:07:55;4.20;;;0.93;;
37641;SDS011;23486;51.956;5.888;2023-09-19T06:10:25;5.32;;;0.75;;
37641;SDS011;23486;51.956;5.888;2023-09-19T06:12:52;8.20;;;0.65;;
37641;SDS011;23486;51.956;5.888;2023-09-19T06:15:20;6.93;;;0.70;;
37641;SDS011;23486;51.956;5.888;2023-09-19T06:17:52;5.88;;;0.60;;
37641;SDS011;23486;51.956;5.888;2023-09-19T06:20:21;7.40;;;0.80;;
37641;SDS011;23486;51.956;5.888;2023-09-19T06:22:48;9.55;;;0.63;;
37641;SDS011;23486;51.956;5.888;2023-09-19T06:25:14;4.60;;;0.50;;
37641;SDS011;23486;51.956;5.888;2023-09-19T06:27:44;8.48;;;0.70;;
37641;SDS011;23486;51.956;5.888;2023-09-19T06:30:13;11.80;;;0.93;;
37641;SDS011;23486;51.956;5.888;2023-09-19T06:32:40;6.22;;;0.73;;
37641;SDS011;23486;51.956;5.888;2023-09-19T06:35:09;10.38;;;0.73;;
37641;SDS011;23486;51.956;5.888;2023-09-19T06:37:36;7.28;;;0.60;;
37641;SDS011;23486;51.956;5.888;2023-09-19T06:40:09;7.30;;;1.00;;
37641;SDS011;23486;51.956;5.888;2023-09-19T06:42:46;8.48;;;0.80;;
37641;SDS011;23486;51.956;5.888;2023-09-19T06:45:15;6.80;;;0.70;;
37641;SDS011;23486;51.956;5.888;2023-09-19T06:47:44;8.18;;;1.08;;
37641;SDS011;23486;51.956;5.888;2023-09-19T06:50:18;11.45;;;0.80;;
37641;SDS011;23486;51.956;5.888;2023-09-19T06:52:48;10.57;;;1.00;;
37641;SDS011;23486;51.956;5.888;2023-09-19T06:55:17;9.13;;;1.05;;
37641;SDS011;23486;51.956;5.888;2023-09-19T06:57:44;7.15;;;0.80;;
37641;SDS011;23486;51.956;5.888;2023-09-19T07:00:16;10.35;;;1.15;;
37641;SDS011;23486;51.956;5.888;2023-09-19T07:08:02;7.03;;;0.50;;
37641;SDS011;23486;51.956;5.888;2023-09-19T07:10:29;6.60;;;0.52;;
37641;SDS011;23486;51.956;5.888;2023-09-19T07:13:05;5.20;;;0.80;;
37641;SDS011;23486;51.956;5.888;2023-09-19T07:15:36;8.45;;;0.70;;
37641;SDS011;23486;51.956;5.888;2023-09-19T07:18:06;10.18;;;0.77;;
37641;SDS011;23486;51.956;5.888;2023-09-19T07:20:33;10.77;;;0.80;;
37641;SDS011;23486;51.956;5.888;2023-09-19T07:22:59;10.43;;;0.88;;
37641;SDS011;23486;51.956;5.888;2023-09-19T07:25:26;6.53;;;0.70;;
37641;SDS011;23486;51.956;5.888;2023-09-19T07:27:55;6.50;;;0.88;;
37641;SDS011;23486;51.956;5.888;2023-09-19T07:30:24;8.50;;;0.85;;
37641;SDS011;23486;51.956;5.888;2023-09-19T07:32:51;9.50;;;0.85;;
37641;SDS011;23486;51.956;5.888;2023-09-19T07:35:17;11.65;;;0.90;;
37641;SDS011;23486;51.956;5.888;2023-09-19T07:37:45;9.68;;;0.80;;
37641;SDS011;23486;51.956;5.888;2023-09-19T07:40:20;11.93;;;1.05;;
37641;SDS011;23486;51.956;5.888;2023-09-19T07:42:46;9.43;;;0.93;;
37641;SDS011;23486;51.956;5.888;2023-09-19T07:45:12;9.88;;;0.73;;
37641;SDS011;23486;51.956;5.888;2023-09-19T07:47:45;6.18;;;0.52;;
37641;SDS011;23486;51.956;5.888;2023-09-19T07:50:15;6.10;;;0.60;;
37641;SDS011;23486;51.956;5.888;2023-09-19T07:52:44;13.20;;;1.13;;
37641;SDS011;23486;51.956;5.888;2023-09-19T07:55:10;6.47;;;0.52;;
37641;SDS011;23486;51.956;5.888;2023-09-19T07:57:41;8.65;;;1.20;;
37641;SDS011;23486;51.956;5.888;2023-09-19T08:00:08;10.90;;;1.48;;
37641;SDS011;23486;51.956;5.888;2023-09-19T08:02:37;12.55;;;1.25;;
37641;SDS011;23486;51.956;5.888;2023-09-19T08:05:05;10.77;;;0.95;;
37641;SDS011;23486;51.956;5.888;2023-09-19T08:07:32;12.88;;;0.93;;
37641;SDS011;23486;51.956;5.888;2023-09-19T08:09:57;10.43;;;0.70;;
37641;SDS011;23486;51.956;5.888;2023-09-19T08:12:23;9.55;;;0.90;;
37641;SDS011;23486;51.956;5.888;2023-09-19T08:14:50;12.65;;;1.30;;
37641;SDS011;23486;51.956;5.888;2023-09-19T08:17:15;12.93;;;1.42;;
37641;SDS011;23486;51.956;5.888;2023-09-19T08:19:41;7.82;;;1.17;;
37641;SDS011;23486;51.956;5.888;2023-09-19T08:22:09;9.30;;;0.80;;
37641;SDS011;23486;51.956;5.888;2023-09-19T08:24:38;7.18;;;0.70;;
37641;SDS011;23486;51.956;5.888;2023-09-19T08:27:04;13.68;;;1.45;;
37641;SDS011;23486;51.956;5.888;2023-09-19T08:29:31;9.23;;;1.17;;
37641;SDS011;23486;51.956;5.888;2023-09-19T08:31:56;14.05;;;1.15;;
37641;SDS011;23486;51.956;5.888;2023-09-19T08:34:23;11.23;;;1.42;;
37641;SDS011;23486;51.956;5.888;2023-09-19T08:36:53;9.07;;;0.98;;
37641;SDS011;23486;51.956;5.888;2023-09-19T08:39:23;11.07;;;1.40;;
37641;SDS011;23486;51.956;5.888;2023-09-19T08:41:49;8.85;;;1.05;;
37641;SDS011;23486;51.956;5.888;2023-09-19T08:44:15;9.82;;;1.48;;
37641;SDS011;23486;51.956;5.888;2023-09-19T08:46:41;10.82;;;1.73;;
37641;SDS011;23486;51.956;5.888;2023-09-19T08:50:11;11.63;;;0.90;;
37641;SDS011;23486;51.956;5.888;2023-09-19T08:52:55;13.85;;;1.15;;
37641;SDS011;23486;51.956;5.888;2023-09-19T08:55:16;13.82;;;1.33;;
37641;SDS011;23486;51.956;5.888;2023-09-19T08:57:46;14.27;;;0.88;;
37641;SDS011;23486;51.956;5.888;2023-09-19T09:00:15;13.73;;;1.83;;
37641;SDS011;23486;51.956;5.888;2023-09-19T09:02:46;11.10;;;1.25;;
37641;SDS011;23486;51.956;5.888;2023-09-19T09:05:14;12.27;;;1.52;;
37641;SDS011;23486;51.956;5.888;2023-09-19T09:07:41;11.35;;;1.17;;
37641;SDS011;23486;51.956;5.888;2023-09-19T09:10:08;11.02;;;0.70;;
37641;SDS011;23486;51.956;5.888;2023-09-19T09:12:35;11.50;;;0.82;;
37641;SDS011;23486;51.956;5.888;2023-09-19T09:15:04;8.48;;;1.35;;
37641;SDS011;23486;51.956;5.888;2023-09-19T09:17:30;9.68;;;0.80;;
37641;SDS011;23486;51.956;5.888;2023-09-19T09:19:56;9.60;;;1.27;;
37641;SDS011;23486;51.956;5.888;2023-09-19T09:22:22;7.75;;;0.95;;
37641;SDS011;23486;51.956;5.888;2023-09-19T09:24:56;8.88;;;1.15;;
37641;SDS011;23486;51.956;5.888;2023-09-19T09:27:29;10.43;;;0.90;;
37641;SDS011;23486;51.956;5.888;2023-09-19T09:29:59;10.57;;;0.80;;
37641;SDS011;23486;51.956;5.888;2023-09-19T09:32:25;8.65;;;1.05;;
37641;SDS011;23486;51.956;5.888;2023-09-19T09:34:56;7.00;;;0.80;;
37641;SDS011;23486;51.956;5.888;2023-09-19T09:37:24;8.63;;;0.88;;
37641;SDS011;23486;51.956;5.888;2023-09-19T09:39:54;7.10;;;0.73;;
37641;SDS011;23486;51.956;5.888;2023-09-19T09:42:33;7.95;;;1.00;;
37641;SDS011;23486;51.956;5.888;2023-09-19T09:45:19;8.63;;;1.10;;
37641;SDS011;23486;51.956;5.888;2023-09-19T09:47:58;8.32;;;1.10;;
37641;SDS011;23486;51.956;5.888;2023-09-19T09:50:45;10.15;;;1.38;;
37641;SDS011;23486;51.956;5.888;2023-09-19T09:53:27;7.97;;;0.95;;
37641;SDS011;23486;51.956;5.888;2023-09-19T09:56:00;8.57;;;1.30;;
37641;SDS011;23486;51.956;5.888;2023-09-19T09:58:35;9.93;;;0.90;;
37641;SDS011;23486;51.956;5.888;2023-09-19T10:03:39;12.32;;;1.15;;
37641;SDS011;23486;51.956;5.888;2023-09-19T10:06:12;11.07;;;1.23;;
37641;SDS011;23486;51.956;5.888;2023-09-19T10:09:02;7.07;;;0.70;;
37641;SDS011;23486;51.956;5.888;2023-09-19T10:12:02;9.52;;;0.90;;
37641;SDS011;23486;51.956;5.888;2023-09-19T10:14:30;6.88;;;0.80;;
37641;SDS011;23486;51.956;5.888;2023-09-19T10:17:05;9.80;;;1.02;;
37641;SDS011;23486;51.956;5.888;2023-09-19T10:19:36;8.68;;;1.10;;
37641;SDS011;23486;51.956;5.888;2023-09-19T10:22:05;11.25;;;0.95;;
37641;SDS011;23486;51.956;5.888;2023-09-19T10:24:33;9.15;;;0.88;;
37641;SDS011;23486;51.956;5.888;2023-09-19T10:27:02;7.90;;;0.70;;
37641;SDS011;23486;51.956;5.888;2023-09-19T10:29:33;8.57;;;0.90;;
37641;SDS011;23486;51.956;5.888;2023-09-19T10:32:01;9.52;;;1.33;;
37641;SDS011;23486;51.956;5.888;2023-09-19T10:34:40;8.15;;;0.68;;
37641;SDS011;23486;51.956;5.888;2023-09-19T10:37:07;9.20;;;1.00;;
37641;SDS011;23486;51.956;5.888;2023-09-19T10:39:37;10.18;;;0.95;;
37641;SDS011;23486;51.956;5.888;2023-09-19T10:42:05;10.90;;;1.02;;
37641;SDS011;23486;51.956;5.888;2023-09-19T10:44:33;7.03;;;1.23;;
37641;SDS011;23486;51.956;5.888;2023-09-19T10:47:08;8.07;;;1.20;;
37641;SDS011;23486;51.956;5.888;2023-09-19T10:49:34;7.00;;;0.85;;
37641;SDS011;23486;51.956;5.888;2023-09-19T10:52:00;7.15;;;0.60;;
37641;SDS011;23486;51.956;5.888;2023-09-19T10:54:29;6.15;;;0.63;;
37641;SDS011;23486;51.956;5.888;2023-09-19T10:56:59;11.73;;;1.10;;
37641;SDS011;23486;51.956;5.888;2023-09-19T10:59:25;10.32;;;0.88;;
37641;SDS011;23486;51.956;5.888;2023-09-19T11:01:59;10.95;;;0.93;;
37641;SDS011;23486;51.956;5.888;2023-09-19T11:04:40;6.78;;;0.70;;
37641;SDS011;23486;51.956;5.888;2023-09-19T11:07:09;8.48;;;1.42;;
37641;SDS011;23486;51.956;5.888;2023-09-19T11:12:54;9.15;;;0.75;;
37641;SDS011;23486;51.956;5.888;2023-09-19T11:15:02;7.95;;;0.82;;
37641;SDS011;23486;51.956;5.888;2023-09-19T11:17:34;6.18;;;1.08;;
37641;SDS011;23486;51.956;5.888;2023-09-19T11:30:30;10.85;;;1.00;;
37641;SDS011;23486;51.956;5.888;2023-09-19T11:36:07;10.15;;;0.90;;
37641;SDS011;23486;51.956;5.888;2023-09-19T11:43:51;5.13;;;0.50;;
37641;SDS011;23486;51.956;5.888;2023-09-19T11:46:20;6.10;;;0.80;;
37641;SDS011;23486;51.956;5.888;2023-09-19T11:48:50;6.63;;;0.70;;
37641;SDS011;23486;51.956;5.888;2023-09-19T11:51:21;5.55;;;0.50;;
37641;SDS011;23486;51.956;5.888;2023-09-19T11:53:52;9.95;;;0.70;;
37641;SDS011;23486;51.956;5.888;2023-09-19T11:56:20;9.02;;;0.77;;
37641;SDS011;23486;51.956;5.888;2023-09-19T11:58:49;5.97;;;0.50;;
37641;SDS011;23486;51.956;5.888;2023-09-19T12:01:25;5.53;;;0.60;;
37641;SDS011;23486;51.956;5.888;2023-09-19T12:03:58;6.18;;;0.50;;
37641;SDS011;23486;51.956;5.888;2023-09-19T12:06:28;7.35;;;0.93;;
37641;SDS011;23486;51.956;5.888;2023-09-19T12:08:54;5.97;;;0.50;;
37641;SDS011;23486;51.956;5.888;2023-09-19T12:11:24;5.35;;;0.43;;
37641;SDS011;23486;51.956;5.888;2023-09-19T12:13:53;5.72;;;0.82;;
37641;SDS011;23486;51.956;5.888;2023-09-19T12:16:24;5.07;;;0.60;;
37641;SDS011;23486;51.956;5.888;2023-09-19T12:18:50;3.60;;;0.40;;
37641;SDS011;23486;51.956;5.888;2023-09-19T12:21:23;4.35;;;0.40;;
37641;SDS011;23486;51.956;5.888;2023-09-19T12:24:06;5.05;;;0.52;;
37641;SDS011;23486;51.956;5.888;2023-09-19T12:29:21;7.20;;;0.80;;
37641;SDS011;23486;51.956;5.888;2023-09-19T12:31:53;5.57;;;0.40;;
37641;SDS011;23486;51.956;5.888;2023-09-19T12:34:23;6.90;;;0.60;;
37641;SDS011;23486;51.956;5.888;2023-09-19T12:39:36;3.63;;;0.30;;
37641;SDS011;23486;51.956;5.888;2023-09-19T12:42:14;4.47;;;0.50;;
37641;SDS011;23486;51.956;5.888;2023-09-19T12:44:44;3.13;;;0.30;;
37641;SDS011;23486;51.956;5.888;2023-09-19T12:47:15;3.78;;;0.32;;
37641;SDS011;23486;51.956;5.888;2023-09-19T12:52:47;5.32;;;0.50;;
37641;SDS011;23486;51.956;5.888;2023-09-19T12:55:20;5.03;;;0.30;;
37641;SDS011;23486;51.956;5.888;2023-09-19T12:58:08;5.45;;;0.55;;
37641;SDS011;23486;51.956;5.888;2023-09-19T13:03:24;4.88;;;0.45;;
37641;SDS011;23486;51.956;5.888;2023-09-19T13:05:58;3.88;;;0.40;;
37641;SDS011;23486;51.956;5.888;2023-09-19T13:11:15;3.63;;;0.73;;
37641;SDS011;23486;51.956;5.888;2023-09-19T13:13:50;4.35;;;0.40;;
37641;SDS011;23486;51.956;5.888;2023-09-19T13:16:55;4.35;;;0.40;;
37641;SDS011;23486;51.956;5.888;2023-09-19T13:22:35;2.97;;;0.30;;
37641;SDS011;23486;51.956;5.888;2023-09-19T13:25:15;3.83;;;0.20;;
37641;SDS011;23486;51.956;5.888;2023-09-19T13:27:46;4.28;;;0.40;;
37641;SDS011;23486;51.956;5.888;2023-09-19T13:30:13;2.55;;;0.32;;
37641;SDS011;23486;51.956;5.888;2023-09-19T13:32:39;3.40;;;0.20;;
37641;SDS011;23486;51.956;5.888;2023-09-19T13:35:06;3.88;;;0.22;;
37641;SDS011;23486;51.956;5.888;2023-09-19T13:37:35;1.98;;;0.30;;
37641;SDS011;23486;51.956;5.888;2023-09-19T13:40:07;3.53;;;0.30;;
37641;SDS011;23486;51.956;5.888;2023-09-19T13:42:36;3.67;;;0.32;;
37641;SDS011;23486;51.956;5.888;2023-09-19T13:45:03;3.42;;;0.25;;
37641;SDS011;23486;51.956;5.888;2023-09-19T13:47:29;4.25;;;0.40;;
37641;SDS011;23486;51.956;5.888;2023-09-19T13:49:55;2.72;;;0.22;;
37641;SDS011;23486;51.956;5.888;2023-09-19T13:52:21;2.00;;;0.30;;
37641;SDS011;23486;51.956;5.888;2023-09-19T13:54:48;1.15;;;0.10;;
37641;SDS011;23486;51.956;5.888;2023-09-19T13:57:15;1.60;;;0.30;;
37641;SDS011;23486;51.956;5.888;2023-09-19T13:59:41;3.90;;;0.20;;
37641;SDS011;23486;51.956;5.888;2023-09-19T14:02:07;2.60;;;0.20;;
37641;SDS011;23486;51.956;5.888;2023-09-19T14:04:33;3.88;;;0.30;;
37641;SDS011;23486;51.956;5.888;2023-09-19T14:06:59;8.93;;;0.30;;
37641;SDS011;23486;51.956;5.888;2023-09-19T14:09:26;3.50;;;0.20;;
37641;SDS011;23486;51.956;5.888;2023-09-19T14:11:58;4.00;;;0.20;;
37641;SDS011;23486;51.956;5.888;2023-09-19T14:14:27;2.83;;;0.30;;
37641;SDS011;23486;51.956;5.888;2023-09-19T14:16:53;2.83;;;0.17;;
37641;SDS011;23486;51.956;5.888;2023-09-19T14:19:19;3.10;;;0.30;;
37641;SDS011;23486;51.956;5.888;2023-09-19T14:21:44;2.70;;;0.20;;
37641;SDS011;23486;51.956;5.888;2023-09-19T14:24:10;2.17;;;0.20;;
37641;SDS011;23486;51.956;5.888;2023-09-19T14:26:37;3.30;;;0.22;;
37641;SDS011;23486;51.956;5.888;2023-09-19T14:29:05;1.67;;;0.20;;
37641;SDS011;23486;51.956;5.888;2023-09-19T14:31:36;3.97;;;0.28;;
37641;SDS011;23486;51.956;5.888;2023-09-19T14:34:06;1.75;;;0.30;;
37641;SDS011;23486;51.956;5.888;2023-09-19T14:36:34;1.23;;;0.28;;
37641;SDS011;23486;51.956;5.888;2023-09-19T14:39:00;3.28;;;0.20;;
37641;SDS011;23486;51.956;5.888;2023-09-19T14:41:27;2.03;;;0.30;;
37641;SDS011;23486;51.956;5.888;2023-09-19T14:43:52;4.88;;;0.25;;
37641;SDS011;23486;51.956;5.888;2023-09-19T14:46:20;3.40;;;0.30;;
37641;SDS011;23486;51.956;5.888;2023-09-19T14:48:45;3.78;;;0.20;;
37641;SDS011;23486;51.956;5.888;2023-09-19T14:51:14;3.28;;;0.43;;
37641;SDS011;23486;51.956;5.888;2023-09-19T14:53:40;2.88;;;0.30;;
37641;SDS011;23486;51.956;5.888;2023-09-19T14:56:09;3.53;;;0.20;;
37641;SDS011;23486;51.956;5.888;2023-09-19T14:58:35;7.50;;;0.40;;
37641;SDS011;23486;51.956;5.888;2023-09-19T15:01:05;2.22;;;0.30;;
37641;SDS011;23486;51.956;5.888;2023-09-19T15:03:32;1.75;;;0.20;;
37641;SDS011;23486;51.956;5.888;2023-09-19T15:06:05;3.38;;;0.30;;
37641;SDS011;23486;51.956;5.888;2023-09-19T15:08:34;3.60;;;0.40;;
37641;SDS011;23486;51.956;5.888;2023-09-19T15:11:11;4.88;;;0.40;;
37641;SDS011;23486;51.956;5.888;2023-09-19T15:13:37;3.10;;;0.25;;
37641;SDS011;23486;51.956;5.888;2023-09-19T15:16:04;3.50;;;0.50;;
37641;SDS011;23486;51.956;5.888;2023-09-19T15:18:34;4.00;;;0.30;;
37641;SDS011;23486;51.956;5.888;2023-09-19T15:21:02;5.05;;;0.38;;
37641;SDS011;23486;51.956;5.888;2023-09-19T15:23:32;3.17;;;0.40;;
37641;SDS011;23486;51.956;5.888;2023-09-19T15:26:02;3.50;;;0.30;;
37641;SDS011;23486;51.956;5.888;2023-09-19T15:28:29;3.13;;;0.22;;
37641;SDS011;23486;51.956;5.888;2023-09-19T15:33:25;2.20;;;0.30;;
37641;SDS011;23486;51.956;5.888;2023-09-19T15:35:59;1.98;;;0.25;;
37641;SDS011;23486;51.956;5.888;2023-09-19T15:38:26;4.05;;;0.40;;
37641;SDS011;23486;51.956;5.888;2023-09-19T15:40:53;2.20;;;0.30;;
37641;SDS011;23486;51.956;5.888;2023-09-19T15:43:19;2.22;;;0.40;;
37641;SDS011;23486;51.956;5.888;2023-09-19T15:45:46;3.40;;;0.50;;
37641;SDS011;23486;51.956;5.888;2023-09-19T15:48:13;4.25;;;0.50;;
37641;SDS011;23486;51.956;5.888;2023-09-19T15:50:38;2.17;;;0.40;;
37641;SDS011;23486;51.956;5.888;2023-09-19T15:53:07;2.67;;;0.40;;
37641;SDS011;23486;51.956;5.888;2023-09-19T15:55:36;2.45;;;0.40;;
37641;SDS011;23486;51.956;5.888;2023-09-19T15:58:04;1.23;;;0.20;;
37641;SDS011;23486;51.956;5.888;2023-09-19T16:00:31;5.18;;;0.50;;
37641;SDS011;23486;51.956;5.888;2023-09-19T16:02:59;4.63;;;0.40;;
37641;SDS011;23486;51.956;5.888;2023-09-19T16:05:26;3.30;;;0.30;;
37641;SDS011;23486;51.956;5.888;2023-09-19T16:07:52;2.17;;;0.40;;